Time;durP1;ratioP1;P1;durP2;ratioP2;P2;SDS_P1;SDS_P2;PMS_P1;PMS_P2;Temp;Humidity;BMP_temperature;BMP_pressure;BME280_temperature;BME280_humidity;BME280_pressure;Samples;Min_cycle;Max_cycle;Signal;HPM_P1;HPM_P2
2021/04/09 00:02:03;;;;;;;24.12;8.83;;;;;;;0.01;100.00;101559.25;1694573;84;21639;-89
2021/04/09 00:04:30;;;;;;;26.12;9.45;;;;;;;-0.06;100.00;101559.09;1717593;83;21854;-89
2021/04/09 00:06:55;;;;;;;25.27;9.55;;;;;;;-0.14;100.00;101557.77;1724298;83;21181;-89
2021/04/09 00:09:21;;;;;;;24.20;9.40;;;;;;;-0.16;100.00;101555.77;1724308;83;21556;-89
2021/04/09 00:11:48;;;;;;;29.87;10.18;;;;;;;-0.19;100.00;101561.40;1724123;82;21482;-88
2021/04/09 00:14:15;;;;;;;20.92;8.93;;;;;;;-0.19;100.00;101564.05;1724340;83;21204;-89
2021/04/09 00:16:42;;;;;;;32.75;9.95;;;;;;;-0.19;100.00;101571.99;1724242;83;21235;-88
2021/04/09 00:19:13;;;;;;;23.77;8.55;;;;;;;-0.19;100.00;101577.29;1724341;83;21183;-89
2021/04/09 00:21:40;;;;;;;23.95;8.75;;;;;;;-0.31;100.00;101578.61;1725683;82;21187;-89
2021/04/09 00:24:07;;;;;;;23.00;8.40;;;;;;;-0.34;100.00;101577.61;1724358;83;21144;-89
2021/04/09 00:26:34;;;;;;;29.35;9.10;;;;;;;-0.38;100.00;101577.59;1715710;82;21719;-88
2021/04/09 00:29:00;;;;;;;24.30;8.63;;;;;;;-0.43;100.00;101577.27;1713680;83;21240;-89
2021/04/09 00:31:26;;;;;;;19.42;7.30;;;;;;;-0.49;100.00;101583.55;1713560;83;21644;-89
2021/04/09 00:33:52;;;;;;;26.75;8.03;;;;;;;-0.59;100.00;101581.55;1713675;83;20954;-88
2021/04/09 00:36:18;;;;;;;20.68;7.47;;;;;;;-0.63;100.00;101582.02;1713642;83;21163;-88
2021/04/09 00:38:46;;;;;;;24.25;7.83;;;;;;;-0.70;100.00;101581.85;1685256;83;21185;-88
2021/04/09 00:41:14;;;;;;;19.82;8.03;;;;;;;-0.68;100.00;101582.50;1655332;86;21270;-88
2021/04/09 00:43:40;;;;;;;20.23;7.65;;;;;;;-0.71;100.00;101585.46;1655263;86;21168;-88
2021/04/09 00:46:08;;;;;;;18.15;7.53;;;;;;;-0.71;100.00;101586.31;1655463;86;21216;-88
2021/04/09 00:48:35;;;;;;;17.42;7.50;;;;;;;-0.68;100.00;101594.41;1655370;86;21211;-88
2021/04/09 00:51:01;;;;;;;21.85;7.67;;;;;;;-0.72;100.00;101583.31;1655455;86;21157;-89
2021/04/09 00:53:28;;;;;;;28.17;8.73;;;;;;;-0.65;100.00;101578.20;1632812;86;21592;-89
2021/04/09 00:55:55;;;;;;;21.87;8.38;;;;;;;-0.63;100.00;101582.84;1655333;86;21227;-89
2021/04/09 00:58:21;;;;;;;25.37;8.90;;;;;;;-0.65;100.00;101570.26;1655304;86;21121;-89
2021/04/09 01:00:47;;;;;;;23.00;8.85;;;;;;;-0.66;100.00;101575.23;1655500;86;21168;-89
2021/04/09 01:03:14;;;;;;;23.12;8.40;;;;;;;-0.70;100.00;101571.27;1655315;86;21605;-89
2021/04/09 01:05:41;;;;;;;27.17;8.18;;;;;;;-0.67;100.00;101576.23;1655279;86;21498;-89
2021/04/09 01:08:07;;;;;;;23.42;8.38;;;;;;;-0.66;100.00;101576.55;1655173;86;21183;-89
2021/04/09 01:10:33;;;;;;;27.32;9.25;;;;;;;-0.65;100.00;101571.58;1655332;86;21649;-89
2021/04/09 01:13:00;;;;;;;24.85;8.58;;;;;;;-0.59;100.00;101572.28;1655396;86;20938;-89
2021/04/09 01:15:26;;;;;;;23.52;8.35;;;;;;;-0.57;100.00;101569.46;1655457;86;21200;-89
2021/04/09 01:17:58;;;;;;;21.87;8.60;;;;;;;-0.53;100.00;101575.61;1655310;86;22007;-89
2021/04/09 01:20:59;;;;;;;22.82;8.78;;;;;;;-0.50;100.00;101579.25;1655479;86;21223;-89
2021/04/09 01:23:56;;;;;;;20.82;7.85;;;;;;;-0.47;100.00;101582.89;1654022;86;21620;-89
2021/04/09 01:27:01;;;;;;;23.73;8.20;;;;;;;-0.48;100.00;101589.16;1657890;85;21160;-89
2021/04/09 01:30:24;;;;;;;22.70;8.75;;;;;;;-0.46;100.00;101592.98;1640530;87;21194;-89
2021/04/09 01:32:53;;;;;;;20.25;8.20;;;;;;;-0.53;100.00;101594.61;1640533;85;21482;-89
2021/04/09 01:35:22;;;;;;;26.48;9.05;;;;;;;-0.56;100.00;101603.73;1618420;87;21096;-89
2021/04/09 01:37:56;;;;;;;21.87;8.40;;;;;;;-0.62;100.00;101610.96;1640086;86;21219;-89
2021/04/09 01:40:30;;;;;;;22.32;8.55;;;;;;;-0.63;100.00;101611.14;1618358;88;21222;-89
2021/04/09 01:43:05;;;;;;;22.87;7.30;;;;;;;-0.68;100.00;101616.90;1618409;88;21468;-89
2021/04/09 01:45:33;;;;;;;22.48;8.25;;;;;;;-0.80;100.00;101617.69;1618403;88;21206;-88
2021/04/09 01:48:01;;;;;;;25.68;8.28;;;;;;;-0.87;100.00;101622.47;1618439;88;21286;-88
2021/04/09 01:50:30;;;;;;;23.92;8.48;;;;;;;-0.93;100.00;101623.44;1618570;88;21625;-89
2021/04/09 01:52:58;;;;;;;23.80;8.38;;;;;;;-0.99;100.00;101621.42;1618497;88;21166;-88
2021/04/09 01:55:24;;;;;;;25.90;9.03;;;;;;;-1.01;100.00;101631.83;1618479;88;21209;-89
2021/04/09 01:57:51;;;;;;;22.05;8.38;;;;;;;-1.05;100.00;101631.31;1618497;88;21264;-88
2021/04/09 02:00:25;;;;;;;22.77;9.30;;;;;;;-1.06;100.00;101628.34;1646812;85;21662;-88
2021/04/09 02:02:53;;;;;;;19.55;8.18;;;;;;;-1.06;100.00;101636.28;1677411;85;21500;-89
2021/04/09 02:05:22;;;;;;;24.20;8.23;;;;;;;-1.04;100.00;101644.05;1671717;85;21220;-88
2021/04/09 02:07:53;;;;;;;21.62;8.55;;;;;;;-1.06;100.00;101649.51;1611675;89;21239;-88
2021/04/09 02:10:21;;;;;;;24.85;8.73;;;;;;;-1.10;100.00;101646.82;1611910;89;21322;-88
2021/04/09 02:12:48;;;;;;;23.12;8.23;;;;;;;-1.10;100.00;101652.11;1611694;89;21234;-88
2021/04/09 02:15:20;;;;;;;27.70;9.18;;;;;;;-1.09;100.00;101658.23;1611898;89;21246;-88
2021/04/09 02:17:47;;;;;;;18.62;6.75;;;;;;;-1.13;100.00;101664.33;1611898;89;21132;-88
2021/04/09 02:20:20;;;;;;;22.42;8.28;;;;;;;-1.20;100.00;101666.77;1611978;89;21217;-89
2021/04/09 02:22:48;;;;;;;17.27;6.28;;;;;;;-1.27;100.00;101668.37;1611963;89;21923;-89
2021/04/09 02:25:19;;;;;;;21.57;8.63;;;;;;;-1.28;100.00;101673.83;1611333;87;21606;-89
2021/04/09 02:27:45;;;;;;;25.25;8.65;;;;;;;-1.33;100.00;101679.56;1600573;89;21255;-88
2021/04/09 02:30:14;;;;;;;34.40;9.78;;;;;;;-1.40;100.00;101678.04;1600523;89;21635;-88
2021/04/09 02:32:41;;;;;;;29.00;9.45;;;;;;;-1.45;100.00;101684.77;1600633;89;21156;-89
2021/04/09 02:35:09;;;;;;;26.17;9.05;;;;;;;-1.53;100.00;101687.34;1600620;89;21177;-89
2021/04/09 02:37:42;;;;;;;33.23;10.60;;;;;;;-1.59;100.00;101691.42;1620944;87;21195;-89
2021/04/09 02:40:13;;;;;;;30.10;8.95;;;;;;;-1.62;100.00;101697.02;1630125;88;21457;-89
2021/04/09 02:42:41;;;;;;;31.20;10.45;;;;;;;-1.63;100.00;101704.12;1545968;92;21374;-88
2021/04/09 02:45:08;;;;;;;47.00;12.73;;;;;;;-1.62;100.00;101708.44;1546261;92;21207;-89
2021/04/09 02:47:38;;;;;;;39.23;11.97;;;;;;;-1.67;100.00;101708.55;1546262;92;21590;-88
2021/04/09 02:50:18;;;;;;;81.47;22.85;;;;;;;-1.71;100.00;101714.61;1546135;92;21259;-88
2021/04/09 02:52:54;;;;;;;55.08;17.82;;;;;;;-1.68;100.00;101713.48;1545306;92;21237;-88
2021/04/09 02:55:27;;;;;;;54.73;17.60;;;;;;;-1.70;100.00;101716.79;1546340;92;21216;-88
2021/04/09 02:57:55;;;;;;;56.25;17.27;;;;;;;-1.68;100.00;101718.77;1543749;92;21283;-88
2021/04/09 03:00:23;;;;;;;68.33;18.42;;;;;;;-1.66;100.00;101722.92;1546270;92;21215;-88
2021/04/09 03:02:49;;;;;;;53.00;15.98;;;;;;;-1.67;100.00;101726.55;1546005;92;21323;-89
2021/04/09 03:05:18;;;;;;;51.85;15.18;;;;;;;-1.68;100.00;101724.05;1592580;89;21239;-88
2021/04/09 03:07:45;;;;;;;49.50;16.40;;;;;;;-1.70;100.00;101727.36;1608162;89;21223;-88
2021/04/09 03:10:15;;;;;;;75.37;20.35;;;;;;;-1.69;100.00;101731.16;1608218;89;21226;-88
2021/04/09 03:12:41;;;;;;;64.72;19.48;;;;;;;-1.68;100.00;101736.77;1607920;89;21745;-89
2021/04/09 03:15:12;;;;;;;66.20;20.30;;;;;;;-1.68;100.00;101737.27;1608153;89;21187;-88
2021/04/09 03:17:46;;;;;;;65.32;19.95;;;;;;;-1.69;100.00;101739.08;1604898;89;21226;-88
2021/04/09 03:20:13;;;;;;;72.25;20.55;;;;;;;-1.72;100.00;101735.42;1607977;89;21206;-88
2021/04/09 03:22:39;;;;;;;66.92;20.95;;;;;;;-1.79;100.00;101738.34;1608129;89;21250;-88
2021/04/09 03:25:06;;;;;;;63.73;19.27;;;;;;;-1.86;100.00;101742.05;1608279;89;21290;-88
2021/04/09 03:27:32;;;;;;;73.20;20.05;;;;;;;-1.94;100.00;101716.04;1611223;88;21278;-88
2021/04/09 03:29:57;;;;;;;57.08;18.20;;;;;;;-1.80;100.00;101741.11;1611682;89;21044;-88
2021/04/09 03:32:23;;;;;;;43.25;13.22;;;;;;;-1.74;100.00;101743.98;1611753;89;20969;-88
2021/04/09 03:34:49;;;;;;;45.60;13.95;;;;;;;-1.75;100.00;101745.47;1611811;89;21075;-89
2021/04/09 03:37:15;;;;;;;41.70;13.30;;;;;;;-1.73;100.00;101741.70;1606575;89;21254;-89
2021/04/09 03:39:41;;;;;;;41.65;12.37;;;;;;;-1.61;100.00;101740.48;1678734;82;20961;-89
2021/04/09 03:42:08;;;;;;;39.60;12.82;;;;;;;-1.49;100.00;101739.76;1732130;82;21565;-89
2021/04/09 03:44:34;;;;;;;46.35;13.72;;;;;;;-1.35;100.00;101745.01;1732198;82;21172;-89
2021/04/09 03:46:59;;;;;;;41.37;12.18;;;;;;;-1.19;100.00;101741.64;1732141;82;21022;-89
2021/04/09 03:49:25;;;;;;;42.93;13.43;;;;;;;-1.07;100.00;101745.70;1697118;82;21123;-89
2021/04/09 03:51:51;;;;;;;36.30;14.00;;;;;;;-0.92;100.00;101748.11;1726514;82;21017;-90
2021/04/09 03:54:17;;;;;;;45.98;15.40;;;;;;;-0.76;100.00;101754.51;1732251;82;21612;-90
2021/04/09 03:56:43;;;;;;;46.50;15.70;;;;;;;-0.55;100.00;101747.50;1732214;82;20973;-90
2021/04/09 03:59:09;;;;;;;38.38;12.93;;;;;;;-0.27;100.00;101752.90;1732263;82;21068;-90
2021/04/09 04:01:35;;;;;;;32.70;11.95;;;;;;;0.03;100.00;101763.95;1732299;82;21264;-91
2021/04/09 04:04:01;;;;;;;34.20;11.78;;;;;;;0.59;100.00;101762.86;1732235;82;20969;-90
2021/04/09 04:06:27;;;;;;;30.57;9.85;;;;;;;1.64;100.00;101761.03;1732089;82;20942;-90
2021/04/09 04:08:53;;;;;;;30.23;11.70;;;;;;;3.00;100.00;101762.31;1732082;82;20961;-91
2021/04/09 04:11:19;;;;;;;39.18;13.10;;;;;;;4.26;100.00;101767.98;1732032;82;21689;-92
2021/04/09 04:13:45;;;;;;;45.40;15.10;;;;;;;5.55;100.00;101769.14;1732144;82;22195;-91
2021/04/09 04:16:11;;;;;;;87.10;22.60;;;;;;;6.25;100.00;101769.88;1732082;82;21159;-91
2021/04/09 04:18:37;;;;;;;130.27;36.70;;;;;;;7.32;100.00;101765.37;1732263;82;20945;-91
2021/04/09 04:21:03;;;;;;;184.13;47.50;;;;;;;8.58;100.00;101771.05;1732242;82;21592;-91
2021/04/09 04:23:29;;;;;;;182.82;48.45;;;;;;;9.78;100.00;101773.45;1700976;82;21168;-91
2021/04/09 04:25:55;;;;;;;161.95;42.08;;;;;;;10.78;97.19;101780.19;1730583;82;21183;-91
2021/04/09 04:28:26;;;;;;;126.62;35.38;;;;;;;12.00;100.00;101778.59;1724043;83;22164;-90
2021/04/09 04:30:52;;;;;;;88.45;27.90;;;;;;;13.09;87.04;101785.14;1724640;82;21553;-90
2021/04/09 04:33:18;;;;;;;48.13;17.27;;;;;;;13.18;63.92;101791.77;1724120;83;21184;-91
2021/04/09 04:35:44;;;;;;;36.25;13.68;;;;;;;13.92;65.36;101789.83;1724315;82;21164;-90
2021/04/09 04:38:10;;;;;;;29.77;11.38;;;;;;;15.05;69.12;101798.00;1724311;82;21777;-91
2021/04/09 04:40:37;;;;;;;30.52;11.05;;;;;;;16.30;59.94;101796.48;1724119;83;21188;-90
2021/04/09 04:43:03;;;;;;;28.12;10.70;;;;;;;17.40;51.45;101796.51;1724299;83;21105;-90
2021/04/09 04:45:28;;;;;;;21.17;9.93;;;;;;;17.83;48.36;101805.14;1724171;83;21021;-90
2021/04/09 04:47:54;;;;;;;24.45;10.63;;;;;;;17.98;47.19;101806.98;1724383;82;21058;-90
2021/04/09 04:50:20;;;;;;;22.48;10.45;;;;;;;17.10;43.85;101807.73;1724312;83;21641;-89
2021/04/09 04:52:46;;;;;;;18.45;10.08;;;;;;;17.68;44.81;101814.97;1724280;83;21152;-89
2021/04/09 04:55:13;;;;;;;18.82;8.35;;;;;;;18.24;44.25;101821.32;1724256;82;20922;-90
2021/04/09 04:57:39;;;;;;;16.70;7.72;;;;;;;18.93;42.75;101822.23;1724168;83;21454;-90
2021/04/09 05:00:06;;;;;;;14.28;7.67;;;;;;;18.55;39.93;101818.65;1724289;82;21120;-89
2021/04/09 05:02:32;;;;;;;17.23;8.10;;;;;;;18.04;35.69;101820.31;1724368;83;21173;-90
2021/04/09 05:04:58;;;;;;;17.02;8.10;;;;;;;18.65;38.74;101823.77;1724215;83;20946;-90
2021/04/09 05:07:24;;;;;;;15.70;7.67;;;;;;;19.11;39.37;101826.98;1724247;82;21549;-89
2021/04/09 05:09:50;;;;;;;12.47;7.05;;;;;;;19.02;36.50;101824.05;1724215;83;21081;-89
2021/04/09 05:12:16;;;;;;;18.55;8.00;;;;;;;19.54;38.49;101833.96;1724335;82;21060;-89
2021/04/09 05:14:42;;;;;;;12.23;7.42;;;;;;;19.86;37.25;101831.17;1724312;83;21205;-89
2021/04/09 05:17:07;;;;;;;23.15;8.38;;;;;;;21.40;36.07;101829.70;1724256;83;20974;-90
2021/04/09 05:19:33;;;;;;;17.17;8.25;;;;;;;21.64;33.90;101832.26;1724283;83;21096;-90
2021/04/09 05:21:59;;;;;;;17.00;8.28;;;;;;;21.60;34.09;101832.63;1724228;82;21048;-90
2021/04/09 05:24:25;;;;;;;18.70;8.38;;;;;;;21.65;33.12;101828.39;1724205;83;21573;-89
2021/04/09 05:26:51;;;;;;;16.50;8.25;;;;;;;20.25;32.68;101830.13;1724156;82;21150;-90
2021/04/09 05:29:17;;;;;;;15.88;8.63;;;;;;;20.05;31.31;101822.99;1724253;83;20950;-89
2021/04/09 05:31:43;;;;;;;19.60;8.58;;;;;;;21.45;33.24;101818.64;1724407;83;21077;-89
2021/04/09 05:34:09;;;;;;;20.88;9.40;;;;;;;20.72;29.38;101828.38;1724287;83;21175;-89
2021/04/09 05:36:34;;;;;;;15.28;8.85;;;;;;;21.99;32.32;101826.60;1724263;82;20961;-90
2021/04/09 05:39:00;;;;;;;20.82;9.75;;;;;;;22.58;31.12;101833.00;1724086;83;21995;-90
2021/04/09 05:41:26;;;;;;;21.62;10.15;;;;;;;20.12;29.59;101844.80;1724175;83;21084;-90
2021/04/09 05:43:52;;;;;;;15.72;8.70;;;;;;;20.12;29.59;101844.80;1724291;83;20982;-90
2021/04/09 05:46:18;;;;;;;20.02;8.43;;;;;;;20.97;28.21;101843.57;1724322;83;20997;-90
2021/04/09 05:48:44;;;;;;;16.50;9.03;;;;;;;19.70;30.23;101846.38;1701592;83;21025;-92
2021/04/09 05:51:10;;;;;;;15.50;8.15;;;;;;;20.08;31.28;101853.87;1724320;83;21267;-90
2021/04/09 05:53:36;;;;;;;15.45;7.80;;;;;;;21.40;31.16;101840.11;1724214;82;20974;-90
2021/04/09 05:56:02;;;;;;;12.25;7.40;;;;;;;19.73;28.70;101849.89;1724417;82;21045;-89
2021/04/09 05:58:27;;;;;;;11.95;7.35;;;;;;;19.98;31.07;101853.46;1724304;83;20934;-90
2021/04/09 06:00:53;;;;;;;15.83;7.78;;;;;;;21.31;30.84;101850.93;1724477;82;21604;-91
2021/04/09 06:03:19;;;;;;;13.05;7.70;;;;;;;18.55;31.63;101857.42;1724287;82;21200;-90
2021/04/09 06:05:45;;;;;;;14.38;7.25;;;;;;;16.32;34.05;101863.66;1724480;82;20934;-91
2021/04/09 06:08:12;;;;;;;14.28;7.65;;;;;;;17.61;33.16;101851.23;1701510;82;21599;-91
2021/04/09 06:10:38;;;;;;;15.13;7.97;;;;;;;18.34;34.01;101853.45;1724465;83;21183;-91
2021/04/09 06:13:05;;;;;;;12.73;8.08;;;;;;;19.37;32.74;101856.27;1724464;83;21077;-90
2021/04/09 06:15:32;;;;;;;11.43;7.22;;;;;;;19.23;31.53;101853.94;1724453;82;21923;-90
2021/04/09 06:17:58;;;;;;;13.72;7.35;;;;;;;17.74;31.88;101855.86;1724243;83;21965;-90
2021/04/09 06:20:24;;;;;;;12.78;7.75;;;;;;;14.84;36.36;101860.80;1724311;82;21166;-91
2021/04/09 06:22:50;;;;;;;12.10;6.90;;;;;;;15.51;36.49;101866.78;1701494;83;20922;-90
2021/04/09 06:25:19;;;;;;;13.50;7.03;;;;;;;16.71;34.93;101857.25;1701628;83;21214;-89
2021/04/09 06:27:45;;;;;;;13.58;7.28;;;;;;;17.93;32.26;101863.72;1721509;82;21235;-90
2021/04/09 06:30:13;;;;;;;14.23;7.67;;;;;;;15.71;35.34;101868.84;1690847;83;21140;-90
2021/04/09 06:32:39;;;;;;;16.50;7.55;;;;;;;17.84;35.06;101856.66;1719468;83;21140;-90
2021/04/09 06:35:06;;;;;;;12.68;7.47;;;;;;;17.01;33.35;101854.30;1719370;83;21192;-90
2021/04/09 06:37:32;;;;;;;12.20;6.80;;;;;;;18.62;33.95;101848.39;1719518;83;21207;-91
2021/04/09 06:39:58;;;;;;;14.98;8.00;;;;;;;16.50;33.69;101848.75;1719463;83;21232;-91
2021/04/09 06:42:24;;;;;;;12.93;6.65;;;;;;;17.34;33.26;101849.39;1719532;83;21171;-91
2021/04/09 06:44:51;;;;;;;16.37;7.67;;;;;;;17.09;33.68;101848.84;1667665;83;20966;-91
2021/04/09 06:47:18;;;;;;;12.33;7.05;;;;;;;16.31;33.48;101850.61;1719422;83;21211;-91
2021/04/09 06:49:44;;;;;;;11.65;6.83;;;;;;;17.76;32.33;101846.28;1719463;83;21156;-92
2021/04/09 06:52:12;;;;;;;11.88;6.60;;;;;;;16.23;34.15;101862.00;1689423;83;21251;-91
2021/04/09 06:54:41;;;;;;;17.10;7.05;;;;;;;18.24;32.77;101848.06;1719401;83;21148;-90
2021/04/09 06:57:10;;;;;;;12.00;6.70;;;;;;;20.75;31.89;101841.47;1719433;83;21169;-91
2021/04/09 06:59:40;;;;;;;12.93;7.60;;;;;;;23.11;29.10;101840.52;1719367;83;21294;-90
2021/04/09 07:02:12;;;;;;;12.68;6.97;;;;;;;23.18;26.66;101843.39;1711648;83;21179;-91
2021/04/09 07:04:38;;;;;;;11.18;7.35;;;;;;;24.54;25.70;101840.39;1716213;83;21216;-92
2021/04/09 07:07:11;;;;;;;11.60;6.92;;;;;;;25.64;24.95;101834.71;1719322;83;21163;-92
2021/04/09 07:09:38;;;;;;;12.23;6.70;;;;;;;22.76;23.10;101838.64;1660707;85;21236;-92
2021/04/09 07:12:06;;;;;;;10.80;6.15;;;;;;;24.99;23.45;101834.50;1660625;86;21415;-93
2021/04/09 07:14:55;;;;;;;17.40;10.30;;;;;;;20.39;25.05;101839.23;1660727;86;21046;-91
2021/04/09 07:17:44;;;;;;;12.85;7.67;;;;;;;20.53;26.40;101843.43;1660058;86;21298;-91
2021/04/09 07:20:16;;;;;;;11.08;6.60;;;;;;;19.04;28.77;101837.45;1661989;86;21184;-91
2021/04/09 07:22:52;;;;;;;8.88;6.05;;;;;;;23.15;25.77;101826.98;1664858;86;21188;-91
2021/04/09 07:25:28;;;;;;;14.05;6.00;;;;;;;24.07;23.99;101831.31;1664743;86;21220;-91
2021/04/09 07:28:15;;;;;;;11.43;6.50;;;;;;;24.59;21.05;101835.52;1658123;85;21177;-92
2021/04/09 07:33:18;;;;;;;12.98;6.37;;;;;;;17.37;26.76;101853.73;1587252;90;21210;-92
2021/04/09 07:35:50;;;;;;;8.35;5.67;;;;;;;21.82;24.66;101832.71;1587235;90;21786;-90
2021/04/09 07:38:34;;;;;;;8.68;5.15;;;;;;;21.30;22.79;101834.80;1587333;90;21221;-90
2021/04/09 07:41:10;;;;;;;11.65;5.95;;;;;;;22.86;22.67;101828.78;1587502;90;21521;-91
2021/04/09 07:43:42;;;;;;;9.65;5.95;;;;;;;23.41;21.96;101825.70;1587459;89;21370;-90
2021/04/09 07:46:24;;;;;;;9.08;5.80;;;;;;;21.27;22.38;101834.03;1590233;87;21193;-94
2021/04/09 07:49:05;;;;;;;10.35;6.22;;;;;;;21.64;22.14;101826.20;1613784;88;21316;-93
2021/04/09 07:51:31;;;;;;;10.65;6.15;;;;;;;21.51;23.73;101838.81;1613282;88;21225;-93
2021/04/09 07:54:10;;;;;;;10.85;6.20;;;;;;;20.86;23.96;101831.98;1614451;88;21750;-95
2021/04/09 07:56:45;;;;;;;7.90;5.62;;;;;;;19.39;26.03;101843.14;1621122;88;21289;-93
2021/04/09 07:59:11;;;;;;;8.85;5.47;;;;;;;20.61;23.47;101840.03;1623968;88;21292;-94
2021/04/09 08:01:48;;;;;;;8.68;5.20;;;;;;;21.76;22.85;101831.19;1623908;87;21755;-93
2021/04/09 08:04:14;;;;;;;8.10;4.90;;;;;;;23.07;21.72;101836.78;1621922;88;21218;-95
2021/04/09 08:06:40;;;;;;;6.78;4.40;;;;;;;20.66;21.71;101831.74;1624151;87;20999;-96
2021/04/09 08:09:07;;;;;;;7.97;4.40;;;;;;;23.81;21.80;101845.01;1623511;88;21303;-95
2021/04/09 08:11:38;;;;;;;8.73;4.65;;;;;;;22.64;20.28;101841.38;1623554;88;21241;-96
2021/04/09 08:14:11;;;;;;;8.08;4.80;;;;;;;19.77;23.20;101852.08;1624382;88;21182;-94
2021/04/09 08:16:42;;;;;;;11.22;4.70;;;;;;;21.07;21.98;101846.16;1624959;87;21163;-93
2021/04/09 08:19:20;;;;;;;9.58;5.47;;;;;;;17.55;25.19;101850.17;1626941;87;21155;-94
2021/04/09 08:22:10;;;;;;;9.20;6.12;;;;;;;18.08;25.10;101847.84;1630160;86;21211;-96
2021/04/09 08:24:36;;;;;;;8.58;4.90;;;;;;;18.63;26.53;101842.38;1571100;91;21298;-96
2021/04/09 08:27:10;;;;;;;8.83;4.67;;;;;;;21.13;23.62;101836.73;1569507;88;21268;-96
2021/04/09 08:29:41;;;;;;;7.87;4.40;;;;;;;21.43;20.53;101838.13;1532165;92;21214;-96
2021/04/09 08:32:11;;;;;;;12.45;4.03;;;;;;;19.21;21.37;101853.42;1575552;86;21160;-95
2021/04/09 08:34:37;;;;;;;6.83;4.22;;;;;;;19.80;21.84;101847.39;1557468;92;21188;-96
2021/04/09 08:37:11;;;;;;;7.70;3.80;;;;;;;18.10;23.66;101850.56;1558071;92;21220;-95
2021/04/09 08:39:38;;;;;;;6.33;4.50;;;;;;;17.57;24.32;101856.17;1538787;92;21167;-94
2021/04/09 08:42:05;;;;;;;9.63;4.92;;;;;;;16.37;26.64;101866.95;1558097;90;21231;-93
2021/04/09 08:44:33;;;;;;;7.90;4.33;;;;;;;16.72;25.07;101865.67;1558963;92;21176;-94
2021/04/09 08:46:59;;;;;;;12.47;5.15;;;;;;;18.45;24.15;101854.77;1557354;90;21827;-95
2021/04/09 08:49:28;;;;;;;7.17;4.50;;;;;;;16.68;25.23;101860.52;1558406;92;21183;-92
2021/04/09 08:51:58;;;;;;;6.40;3.62;;;;;;;15.98;26.10;101870.88;1556224;90;21621;-92
2021/04/09 08:54:30;;;;;;;10.98;5.33;;;;;;;16.89;24.43;101859.20;1588159;89;21831;-93
2021/04/09 08:56:58;;;;;;;8.43;4.85;;;;;;;16.34;24.64;101865.03;1593137;88;21480;-92
2021/04/09 08:59:45;;;;;;;8.28;4.33;;;;;;;15.67;27.10;101865.78;1615843;88;21205;-91
2021/04/09 09:02:24;;;;;;;9.33;4.08;;;;;;;16.96;26.70;101861.92;1654698;85;21194;-94
2021/04/09 09:05:08;;;;;;;8.38;3.77;;;;;;;18.33;24.43;101852.38;1678151;83;21289;-93
2021/04/09 09:07:56;;;;;;;8.63;3.55;;;;;;;19.10;23.38;101853.25;1699001;84;21233;-92
2021/04/09 09:10:33;;;;;;;6.28;3.47;;;;;;;19.54;22.58;101855.84;1699178;84;21212;-91
2021/04/09 09:13:15;;;;;;;6.80;3.50;;;;;;;19.45;21.98;101861.12;1698980;84;21803;-92
2021/04/09 09:15:47;;;;;;;8.80;3.75;;;;;;;16.07;25.09;101867.12;1699018;84;21495;-93
2021/04/09 09:18:32;;;;;;;12.28;3.98;;;;;;;13.48;28.07;101873.20;1699238;84;21178;-93
2021/04/09 09:21:24;;;;;;;9.70;4.17;;;;;;;12.98;29.76;101875.34;1699195;84;21241;-91
2021/04/09 09:24:05;;;;;;;6.85;3.65;;;;;;;14.59;28.35;101870.03;1699676;84;21157;-91
2021/04/09 09:26:43;;;;;;;8.45;3.55;;;;;;;16.06;27.31;101869.55;1699193;84;21644;-91
2021/04/09 09:32:06;;;;;;;9.05;4.28;;;;;;;17.47;24.63;101867.88;1580928;89;21695;-90
2021/04/09 09:34:39;;;;;;;8.03;3.40;;;;;;;17.58;24.15;101862.69;1572047;91;21354;-89
2021/04/09 09:37:18;;;;;;;10.90;4.47;;;;;;;17.58;24.58;101861.88;1571929;91;21191;-89
2021/04/09 09:40:05;;;;;;;9.23;3.92;;;;;;;16.89;24.68;101873.63;1572685;90;21234;-88
2021/04/09 09:42:37;;;;;;;11.30;3.70;;;;;;;15.28;27.21;101878.28;1572094;89;21177;-88
2021/04/09 09:45:09;;;;;;;9.20;3.90;;;;;;;16.31;25.01;101875.64;1572061;91;21502;-88
2021/04/09 09:47:46;;;;;;;8.13;3.87;;;;;;;15.28;26.98;101884.27;1572161;91;21585;-88
2021/04/09 09:50:28;;;;;;;16.12;4.92;;;;;;;14.94;27.51;101877.20;1571983;91;21266;-89
2021/04/09 09:53:00;;;;;;;8.25;3.70;;;;;;;13.62;28.61;101883.17;1572134;91;21701;-88
2021/04/09 09:55:43;;;;;;;7.50;3.70;;;;;;;14.14;27.85;101869.77;1572220;91;21252;-86
2021/04/09 09:58:22;;;;;;;5.60;2.85;;;;;;;14.51;28.36;101869.43;1572353;91;21632;-86
2021/04/09 10:01:06;;;;;;;7.75;3.00;;;;;;;14.92;26.97;101868.48;1572104;90;21644;-87
2021/04/09 10:03:36;;;;;;;7.28;3.62;;;;;;;15.02;27.36;101865.58;1572011;91;21224;-87
2021/04/09 10:08:39;;;;;;;7.08;3.35;;;;;;;14.36;28.30;101868.42;1575919;91;21125;-86
2021/04/09 10:11:09;;;;;;;9.85;4.00;;;;;;;16.14;26.07;101864.96;1575941;89;21738;-86
2021/04/09 10:13:38;;;;;;;5.95;3.35;;;;;;;17.30;25.05;101851.03;1601773;88;21107;-85
2021/04/09 10:16:11;;;;;;;6.22;3.00;;;;;;;16.74;24.28;101859.98;1598272;89;21100;-86
2021/04/09 10:18:42;;;;;;;6.35;2.90;;;;;;;17.76;23.89;101860.47;1602509;89;21284;-86
2021/04/09 10:21:19;;;;;;;6.05;3.10;;;;;;;16.42;24.47;101859.63;1602637;89;21225;-86
2021/04/09 10:23:51;;;;;;;5.42;2.60;;;;;;;16.88;23.34;101858.91;1613474;88;21596;-86
2021/04/09 10:26:24;;;;;;;9.60;2.97;;;;;;;15.66;24.55;101870.95;1616055;88;21196;-86
2021/04/09 10:28:50;;;;;;;6.72;2.87;;;;;;;15.44;24.39;101870.55;1653062;85;21612;-86
2021/04/09 10:31:20;;;;;;;8.50;3.05;;;;;;;15.72;24.83;101863.13;1695303;84;21838;-89
2021/04/09 10:33:51;;;;;;;12.75;4.37;;;;;;;14.56;25.96;101863.77;1638869;87;21277;-86
2021/04/09 10:36:26;;;;;;;9.48;3.10;;;;;;;12.96;28.88;101880.16;1638988;87;21241;-88
2021/04/09 10:39:04;;;;;;;5.60;2.95;;;;;;;11.70;29.51;101882.20;1638992;87;21210;-87
2021/04/09 10:41:34;;;;;;;10.05;2.80;;;;;;;11.50;29.51;101880.38;1638491;87;21169;-87
2021/04/09 10:44:07;;;;;;;6.65;3.00;;;;;;;11.06;28.61;101878.00;1639132;87;21202;-86
2021/04/09 10:46:36;;;;;;;8.73;2.92;;;;;;;11.33;29.23;101869.48;1639025;87;21729;-88
2021/04/09 10:49:08;;;;;;;8.03;3.75;;;;;;;11.24;30.55;101854.16;1641028;87;21266;-87
2021/04/09 10:51:38;;;;;;;8.00;3.50;;;;;;;11.71;30.66;101855.52;1641225;87;21249;-86
2021/04/09 10:54:10;;;;;;;6.67;2.77;;;;;;;11.71;30.66;101855.52;1640974;87;21262;-89
2021/04/09 10:56:37;;;;;;;11.45;3.33;;;;;;;11.68;29.94;101853.82;1613694;88;21883;-87
2021/04/09 10:59:07;;;;;;;5.78;2.87;;;;;;;11.31;30.55;101857.55;1630094;87;21184;-86
2021/04/09 11:01:31;;;;;;;8.60;3.02;;;;;;;12.41;29.78;101841.55;1626774;88;21508;-86
2021/04/09 11:04:00;;;;;;;6.87;3.17;;;;;;;12.90;28.31;101838.67;1630121;88;21271;-89
2021/04/09 11:06:27;;;;;;;8.30;2.60;;;;;;;12.01;28.23;101851.32;1654526;86;21550;-89
2021/04/09 11:08:59;;;;;;;6.40;2.35;;;;;;;11.28;29.80;101848.58;1630231;88;21214;-88
2021/04/09 11:11:36;;;;;;;5.45;2.60;;;;;;;11.08;29.26;101848.08;1641119;87;21207;-90
2021/04/09 11:14:12;;;;;;;8.30;2.67;;;;;;;11.05;28.55;101856.10;1611144;88;21198;-88
2021/04/09 11:16:51;;;;;;;6.17;2.80;;;;;;;11.21;28.29;101849.22;1631392;87;21170;-88
2021/04/09 11:19:35;;;;;;;6.17;2.27;;;;;;;11.09;27.75;101850.56;1590885;90;21168;-87
2021/04/09 11:22:04;;;;;;;9.28;2.65;;;;;;;11.18;28.86;101851.04;1592821;88;22064;-86
2021/04/09 11:24:37;;;;;;;8.68;3.50;;;;;;;11.13;29.85;101848.20;1591083;90;21190;-87
2021/04/09 11:27:17;;;;;;;10.20;3.72;;;;;;;11.86;29.94;101846.13;1620568;87;21197;-86
2021/04/09 11:29:43;;;;;;;11.20;4.20;;;;;;;12.49;29.89;101843.87;1550752;91;21283;-87
2021/04/09 11:32:17;;;;;;;7.55;2.83;;;;;;;12.10;30.94;101846.37;1503352;95;21726;-86
2021/04/09 11:34:49;;;;;;;10.38;5.03;;;;;;;12.59;28.48;101845.44;1503353;95;21246;-86
2021/04/09 11:37:17;;;;;;;15.25;5.50;;;;;;;12.94;28.72;101852.02;1502793;95;21247;-87
2021/04/09 11:40:16;;;;;;;;;;;;;;;;;;;;;